Saint Charles, Missouri
Current Conditions -  °F | °C
As of 3:54 AM on Saturday 22 Nov 2014 (Local Time) from KSET Reporting Station
Haze Haze  
Wind Chill: 33°   Ceiling: 4500
Heat Index: 38°   Visibility: 5mi
Dew Point: 36°   Wind: 6mph
Humidity: 93%   Direction: 100°E
Pressure: 30.14"   Gusts: NA
Location:  38.93°N, 90.43°W
Report Text: KSET 220954Z AUTO 10005KT 5SM BR BKN045 OVC055 03/02 A3014 RMK AO2 SLP207 T00330022
Loading
Personal Weather Stations






























Interactive Weather Map New forecast layout! Learn more

10-Day Weather Forecast

Advertisements
Track Severe Weather on mobile